Terminal Aerodrome Forecast
Issued by NWS Mt. Holly, NJ

Home | Current Version | Previous Version | Text Only | Print | Product List | Glossary On
Versions: 1 2 3 4 5 6 7 8 9 10 11 12 13 14 15 16 17 18 19 20 21 22 23 24 25 26 27 28 29 30 31
000
FTAK31 PANC 021144
TAFABE
TAF
PABE 021144Z 0212/0312 12008KT P6SM VCSH SCT030 SCT080 BKN200
     FM021500 12010G15KT 5SM -RA BR SCT010 BKN015 OVC030
     FM022200 16012KT P6SM -RA SCT010 BKN020
     FM030300 18010KT P6SM -SHRA OVC010
     FM030900 24008KT P6SM OVC010=

USA.gov is the U.S. government's official web portal to all federal, state and local government web resources and services.